createdAt,value
2017-11-03T00:01:30.345Z,31.10
2017-11-03T00:03:57.898Z,31.67
2017-11-03T00:06:25.366Z,32.90
2017-11-03T00:08:53.227Z,30.63
2017-11-03T00:11:20.767Z,30.57
2017-11-03T00:13:49.071Z,30.30
2017-11-03T00:16:18.481Z,33.27
2017-11-03T00:18:45.975Z,33.63
2017-11-03T00:21:13.514Z,32.93
2017-11-03T00:23:41.450Z,33.93
2017-11-03T00:26:09.009Z,31.70
2017-11-03T00:28:36.839Z,33.73
2017-11-03T00:31:04.406Z,32.47
2017-11-03T00:33:31.916Z,29.73
2017-11-03T00:35:59.414Z,26.87
2017-11-03T00:38:26.991Z,34.30
2017-11-03T00:40:54.536Z,32.93
2017-11-03T00:43:23.077Z,34.17
2017-11-03T00:45:50.563Z,34.17
2017-11-03T00:48:18.051Z,30.97
2017-11-03T00:50:45.563Z,32.77
2017-11-03T00:53:13.094Z,33.27
2017-11-03T00:55:40.680Z,36.30
2017-11-03T00:58:08.268Z,32.00
2017-11-03T01:00:35.729Z,34.83
2017-11-03T01:03:03.208Z,32.83
2017-11-03T01:05:30.730Z,34.53
2017-11-03T01:07:58.203Z,35.87
2017-11-03T01:10:25.747Z,31.53
2017-11-03T01:12:54.477Z,39.83
2017-11-03T01:15:22.859Z,38.00
2017-11-03T01:17:50.458Z,34.30
2017-11-03T01:20:18.010Z,39.83
2017-11-03T01:22:45.565Z,35.13
2017-11-03T01:25:13.124Z,31.27
2017-11-03T01:27:40.688Z,36.37
2017-11-03T01:30:08.312Z,37.77
2017-11-03T01:32:36.029Z,38.37
2017-11-03T01:35:03.654Z,37.03
2017-11-03T01:37:31.197Z,36.80
2017-11-03T01:39:58.793Z,38.50
2017-11-03T01:42:26.339Z,41.23
2017-11-03T01:44:54.121Z,40.07
2017-11-03T01:47:21.742Z,38.33
2017-11-03T01:49:49.350Z,38.70
2017-11-03T01:52:17.573Z,40.50
2017-11-03T01:54:46.014Z,39.30
2017-11-03T01:57:13.571Z,38.73
2017-11-03T01:59:41.131Z,40.70
2017-11-03T02:02:08.682Z,40.93
2017-11-03T02:04:37.100Z,40.00
2017-11-03T02:07:04.696Z,35.63
2017-11-03T02:09:33.080Z,43.17
2017-11-03T02:12:01.437Z,41.97
2017-11-03T02:14:28.947Z,37.97
2017-11-03T02:16:57.464Z,35.20
2017-11-03T02:19:25.473Z,35.87
2017-11-03T02:21:53.081Z,36.73
2017-11-03T02:24:20.648Z,39.73
2017-11-03T02:26:48.212Z,39.57
2017-11-03T02:29:15.746Z,41.80
2017-11-03T02:31:44.021Z,39.50
2017-11-03T02:34:11.680Z,40.73
2017-11-03T02:36:39.201Z,37.03
2017-11-03T02:39:06.685Z,37.07
2017-11-03T02:41:34.162Z,38.77
2017-11-03T02:44:02.042Z,41.93
2017-11-03T02:46:29.563Z,39.97
2017-11-03T02:48:57.124Z,37.00
2017-11-03T02:51:24.665Z,40.63
2017-11-03T02:53:52.191Z,39.37
2017-11-03T02:56:19.717Z,36.70
2017-11-03T02:58:47.222Z,41.87
2017-11-03T03:01:14.749Z,36.23
2017-11-03T03:03:42.244Z,41.23
2017-11-03T03:06:09.719Z,40.67
2017-11-03T03:08:37.230Z,37.30
2017-11-03T03:11:04.720Z,38.63
2017-11-03T03:13:32.207Z,40.77
2017-11-03T03:15:59.673Z,38.57
2017-11-03T03:18:27.533Z,41.50
2017-11-03T03:20:56.043Z,39.87
2017-11-03T03:23:23.537Z,37.03
2017-11-03T03:25:51.015Z,44.57
2017-11-03T03:28:18.573Z,36.80
2017-11-03T03:30:46.034Z,39.53
2017-11-03T03:33:13.504Z,36.37
2017-11-03T03:35:41.013Z,36.93
2017-11-03T03:38:08.486Z,41.83
2017-11-03T03:40:36.024Z,41.90
2017-11-03T03:43:03.487Z,37.93
2017-11-03T03:45:31.001Z,41.43
2017-11-03T03:47:58.457Z,41.13
2017-11-03T03:50:26.002Z,42.50
2017-11-03T03:52:53.488Z,40.30
2017-11-03T03:55:20.958Z,42.07
2017-11-03T03:57:48.458Z,44.53
2017-11-03T04:00:15.928Z,42.13
2017-11-03T04:02:43.455Z,43.23
2017-11-03T04:05:10.964Z,38.17
2017-11-03T04:07:38.528Z,34.00
2017-11-03T04:10:06.088Z,39.50
2017-11-03T04:12:33.573Z,38.17
2017-11-03T04:15:01.679Z,43.93
2017-11-03T04:17:29.164Z,41.37
2017-11-03T04:19:59.391Z,41.23
2017-11-03T04:22:27.669Z,37.30
2017-11-03T04:24:55.165Z,40.83
2017-11-03T04:27:22.660Z,32.43
2017-11-03T04:29:50.158Z,38.30
2017-11-03T04:32:17.703Z,40.30
2017-11-03T04:34:45.256Z,35.93
2017-11-03T04:37:12.834Z,34.43
2017-11-03T04:39:40.352Z,36.53
2017-11-03T04:42:07.867Z,37.70
2017-11-03T04:44:35.495Z,40.57
2017-11-03T04:47:03.017Z,45.27
2017-11-03T04:49:30.476Z,40.77
2017-11-03T04:51:58.005Z,39.63
2017-11-03T04:54:25.469Z,39.27
2017-11-03T04:56:52.980Z,36.53
2017-11-03T04:59:20.440Z,41.80
2017-11-03T05:01:47.936Z,44.27
2017-11-03T05:04:15.388Z,41.90
2017-11-03T05:06:42.845Z,40.00
2017-11-03T05:09:10.370Z,38.60
2017-11-03T05:11:37.880Z,41.33
2017-11-03T05:14:05.430Z,38.93
2017-11-03T05:16:32.919Z,43.43
2017-11-03T05:19:00.454Z,38.53
2017-11-03T05:21:27.958Z,42.37
2017-11-03T05:23:57.870Z,41.27
2017-11-03T05:26:27.990Z,39.93
2017-11-03T05:28:56.609Z,42.90
2017-11-03T05:31:24.083Z,42.70
2017-11-03T05:33:51.643Z,44.50
2017-11-03T05:36:19.201Z,39.07
2017-11-03T05:38:46.745Z,45.83
2017-11-03T05:41:14.338Z,41.53
2017-11-03T05:43:41.871Z,44.17
2017-11-03T05:46:09.399Z,43.67
2017-11-03T05:48:36.999Z,43.57
2017-11-03T05:51:04.668Z,41.07
2017-11-03T05:53:32.214Z,42.33
2017-11-03T05:55:59.806Z,46.70
2017-11-03T05:58:27.351Z,37.73
2017-11-03T06:00:54.868Z,38.73
2017-11-03T06:03:22.468Z,40.17
2017-11-03T06:05:50.009Z,38.73
2017-11-03T06:08:17.582Z,40.87
2017-11-03T06:10:45.070Z,38.80
2017-11-03T06:13:12.882Z,41.33
2017-11-03T06:15:40.361Z,31.83
2017-11-03T06:18:07.874Z,40.07
2017-11-03T06:20:35.449Z,36.37
2017-11-03T06:23:03.034Z,41.60
2017-11-03T06:25:30.543Z,45.40
2017-11-03T06:27:58.048Z,47.00
2017-11-03T06:30:25.517Z,41.07
2017-11-03T06:32:53.006Z,43.47
2017-11-03T06:35:20.508Z,39.37
2017-11-03T06:37:48.000Z,47.70
2017-11-03T06:40:15.533Z,40.20
2017-11-03T06:42:43.133Z,43.13
2017-11-03T06:45:10.639Z,40.83
2017-11-03T06:47:38.143Z,42.53
2017-11-03T06:50:05.718Z,43.00
2017-11-03T06:52:33.230Z,39.27
2017-11-03T06:55:00.704Z,43.97
2017-11-03T06:57:28.218Z,44.80
2017-11-03T06:59:55.731Z,41.37
2017-11-03T07:02:23.211Z,39.50
2017-11-03T07:04:50.753Z,44.93
2017-11-03T07:07:18.373Z,41.70
2017-11-03T07:09:46.058Z,35.93
2017-11-03T07:12:13.703Z,46.57
2017-11-03T07:14:41.198Z,41.67
2017-11-03T07:17:08.913Z,44.70
2017-11-03T07:19:36.408Z,41.07
2017-11-03T07:22:03.940Z,42.93
2017-11-03T07:24:31.417Z,45.50
2017-11-03T07:26:58.932Z,41.63
2017-11-03T07:29:26.492Z,39.80
2017-11-03T07:31:53.975Z,38.97
2017-11-03T07:34:21.483Z,40.33
2017-11-03T07:36:49.154Z,41.60
2017-11-03T07:39:16.700Z,40.23
2017-11-03T07:41:45.158Z,37.60
2017-11-03T07:44:12.657Z,41.60
2017-11-03T07:46:40.272Z,42.67
2017-11-03T07:49:07.870Z,42.63
2017-11-03T07:51:35.530Z,41.97
2017-11-03T07:54:03.213Z,36.57
2017-11-03T07:59:12.533Z,42.77
2017-11-03T08:01:40.098Z,41.80
2017-11-03T08:04:07.645Z,39.90
2017-11-03T08:06:35.203Z,38.37
2017-11-03T08:09:02.767Z,41.57
2017-11-03T08:11:30.304Z,43.43
2017-11-03T08:13:57.818Z,40.53
2017-11-03T08:16:25.308Z,39.60
2017-11-03T08:18:53.104Z,42.47
2017-11-03T08:21:20.647Z,43.20
2017-11-03T08:23:48.208Z,38.43
2017-11-03T08:26:15.763Z,38.83
2017-11-03T08:28:43.387Z,41.33
2017-11-03T08:31:10.886Z,37.40
2017-11-03T08:33:38.463Z,40.17
2017-11-03T08:36:05.932Z,42.37
2017-11-03T08:38:33.528Z,43.70
2017-11-03T08:41:01.021Z,38.73
2017-11-03T08:43:28.568Z,43.53
2017-11-03T08:45:57.015Z,41.53
2017-11-03T08:48:25.491Z,41.73
2017-11-03T08:50:53.064Z,45.13
2017-11-03T08:53:20.713Z,41.77
2017-11-03T08:55:48.360Z,42.23
2017-11-03T08:58:15.914Z,40.10
2017-11-03T09:00:43.582Z,40.70
2017-11-03T09:03:11.182Z,40.57
2017-11-03T09:05:38.815Z,37.73
2017-11-03T09:08:06.594Z,39.97
2017-11-03T09:10:34.144Z,39.50
2017-11-03T09:13:01.649Z,37.23
2017-11-03T09:15:29.180Z,36.83
2017-11-03T09:17:56.740Z,38.97
2017-11-03T09:20:24.342Z,35.80
2017-11-03T09:22:51.954Z,35.53
2017-11-03T09:25:21.290Z,35.77
2017-11-03T09:27:49.001Z,32.93
2017-11-03T09:30:16.615Z,33.90
2017-11-03T09:32:44.106Z,34.50
2017-11-03T09:35:11.692Z,34.23
2017-11-03T09:37:39.170Z,31.97
2017-11-03T09:40:06.740Z,33.33
2017-11-03T09:42:34.203Z,32.17
2017-11-03T09:45:01.737Z,32.80
2017-11-03T09:47:29.297Z,27.33
2017-11-03T09:49:56.909Z,28.17
2017-11-03T09:52:24.571Z,24.30
2017-11-03T09:57:34.220Z,23.53
2017-11-03T10:00:07.852Z,24.47
2017-11-03T10:02:35.505Z,22.57
2017-11-03T10:05:03.298Z,24.37
2017-11-03T10:07:30.844Z,23.50
2017-11-03T10:09:58.383Z,26.23
2017-11-03T10:12:26.152Z,26.93
2017-11-03T10:14:54.358Z,28.03
2017-11-03T10:17:21.837Z,27.83
2017-11-03T10:19:50.236Z,23.43
2017-11-03T10:22:17.728Z,21.00
2017-11-03T10:24:45.333Z,22.70
2017-11-03T10:27:12.877Z,20.07
2017-11-03T10:29:40.556Z,17.53
2017-11-03T10:32:08.134Z,20.23
2017-11-03T10:34:35.621Z,21.63
2017-11-03T10:37:03.121Z,17.27
2017-11-03T10:39:30.609Z,16.43
2017-11-03T10:41:58.100Z,17.30
2017-11-03T10:44:25.704Z,16.97
2017-11-03T10:46:56.252Z,15.67
2017-11-03T10:49:26.484Z,16.40
2017-11-03T10:51:54.139Z,14.47
2017-11-03T10:54:21.607Z,14.20
2017-11-03T10:56:49.206Z,14.23
2017-11-03T10:59:16.703Z,14.77
2017-11-03T11:01:44.221Z,13.63
2017-11-03T11:04:14.502Z,14.38
2017-11-03T11:06:42.455Z,13.57
2017-11-03T11:09:15.742Z,14.67
2017-11-03T11:11:43.273Z,15.70
2017-11-03T11:14:10.745Z,15.60
2017-11-03T11:16:38.250Z,17.03
2017-11-03T11:19:05.742Z,17.37
2017-11-03T11:21:33.265Z,15.87
2017-11-03T11:24:00.747Z,16.37
2017-11-03T11:26:28.333Z,19.27
2017-11-03T11:28:56.129Z,17.03
2017-11-03T11:31:23.652Z,16.20
2017-11-03T11:33:51.115Z,16.63
2017-11-03T11:36:18.598Z,15.50
2017-11-03T11:38:46.124Z,16.93
2017-11-03T11:41:13.631Z,15.83
2017-11-03T11:43:41.194Z,16.77
2017-11-03T11:46:08.835Z,16.80
2017-11-03T11:48:37.276Z,15.37
2017-11-03T11:51:04.820Z,16.63
2017-11-03T11:53:32.337Z,17.57
2017-11-03T11:56:01.456Z,16.30
2017-11-03T11:58:29.039Z,16.97
2017-11-03T12:01:02.289Z,17.80
2017-11-03T12:03:29.887Z,17.20
2017-11-03T12:05:57.381Z,18.03
2017-11-03T12:08:27.449Z,16.03
2017-11-03T12:10:54.943Z,17.43
2017-11-03T12:13:23.623Z,13.90
2017-11-03T12:15:51.847Z,15.80
2017-11-03T12:18:19.360Z,17.17
2017-11-03T12:20:46.857Z,15.13
2017-11-03T12:23:17.770Z,13.80
2017-11-03T12:25:58.980Z,15.10
2017-11-03T12:28:44.955Z,14.43
2017-11-03T12:31:13.087Z,14.55
2017-11-03T12:33:45.640Z,13.57
2017-11-03T12:36:13.306Z,14.95
2017-11-03T12:38:41.008Z,14.27
2017-11-03T12:41:08.571Z,14.00
2017-11-03T12:43:36.109Z,14.00
2017-11-03T12:46:03.660Z,16.42
2017-11-03T12:48:31.218Z,14.77
2017-11-03T12:50:58.949Z,14.65
2017-11-03T12:53:26.557Z,13.38
2017-11-03T12:55:54.051Z,12.70
2017-11-03T12:58:27.632Z,14.23
2017-11-03T13:00:56.011Z,13.02
2017-11-03T13:03:33.401Z,13.00
2017-11-03T13:06:01.618Z,14.00
2017-11-03T13:08:29.094Z,14.05
2017-11-03T13:10:58.629Z,14.02
2017-11-03T13:13:26.192Z,14.82
2017-11-03T13:15:54.800Z,14.90
2017-11-03T13:18:22.361Z,14.38
2017-11-03T13:20:50.001Z,14.32
2017-11-03T13:23:17.552Z,14.90
2017-11-03T13:25:46.032Z,13.62
2017-11-03T13:28:13.650Z,14.60
2017-11-03T13:30:55.261Z,15.18
2017-11-03T13:33:25.699Z,13.10
2017-11-03T13:36:06.428Z,14.10
2017-11-03T13:38:35.229Z,14.50
2017-11-03T13:41:02.832Z,14.82
2017-11-03T13:43:30.308Z,14.05
2017-11-03T13:45:57.795Z,14.87
2017-11-03T13:48:25.306Z,13.35
2017-11-03T13:50:54.292Z,14.82
2017-11-03T13:53:21.758Z,13.90
2017-11-03T13:55:57.521Z,15.80
2017-11-03T13:58:32.958Z,15.23
2017-11-03T14:01:01.681Z,14.15
2017-11-03T14:03:29.376Z,15.30
2017-11-03T14:05:56.878Z,17.00
2017-11-03T14:08:24.373Z,15.47
2017-11-03T14:10:51.885Z,16.00
2017-11-03T14:13:19.359Z,15.47
2017-11-03T14:15:47.013Z,15.63
2017-11-03T14:18:14.585Z,15.37
2017-11-03T14:20:42.218Z,13.50
2017-11-03T14:23:09.725Z,14.60
2017-11-03T14:25:37.216Z,17.63
2017-11-03T14:28:06.884Z,16.70
2017-11-03T14:30:42.409Z,13.60
2017-11-03T14:33:10.257Z,14.57
2017-11-03T14:35:51.086Z,13.07
2017-11-03T14:38:19.241Z,12.07
2017-11-03T14:40:46.803Z,13.50
2017-11-03T14:43:21.124Z,15.30
2017-11-03T14:45:49.368Z,14.63
2017-11-03T14:48:16.842Z,20.17
2017-11-03T14:50:44.374Z,18.73
2017-11-03T14:53:11.841Z,20.13
2017-11-03T14:55:41.329Z,16.00
2017-11-03T14:58:08.969Z,16.53
2017-11-03T15:00:36.526Z,18.00
2017-11-03T15:03:04.019Z,16.50
2017-11-03T15:05:31.556Z,18.10
2017-11-03T15:07:59.049Z,14.23
2017-11-03T15:10:27.036Z,15.73
2017-11-03T15:12:54.541Z,17.63
2017-11-03T15:15:22.052Z,17.90
2017-11-03T15:17:49.574Z,17.97
2017-11-03T15:20:17.057Z,14.67
2017-11-03T15:22:44.546Z,18.20
2017-11-03T15:25:12.067Z,16.43
2017-11-03T15:27:39.550Z,16.60
2017-11-03T15:30:07.232Z,18.03
2017-11-03T15:32:35.199Z,22.37
2017-11-03T15:35:02.693Z,17.43
2017-11-03T15:37:30.192Z,16.77
2017-11-03T15:39:57.705Z,20.00
2017-11-03T15:42:25.270Z,15.17
2017-11-03T15:44:52.776Z,14.17
2017-11-03T15:47:20.752Z,20.37
2017-11-03T15:49:48.280Z,19.47
2017-11-03T15:52:15.800Z,18.40
2017-11-03T15:54:43.309Z,19.17
2017-11-03T15:57:10.844Z,18.27
2017-11-03T15:59:38.335Z,17.30
2017-11-03T16:02:05.834Z,19.50
2017-11-03T16:04:34.298Z,20.37
2017-11-03T16:07:01.790Z,22.13
2017-11-03T16:09:30.427Z,19.03
2017-11-03T16:11:57.938Z,21.47
2017-11-03T16:14:25.803Z,22.40
2017-11-03T16:16:53.390Z,18.37
2017-11-03T16:19:20.908Z,16.17
2017-11-03T16:21:48.529Z,20.23
2017-11-03T16:24:16.154Z,21.97
2017-11-03T16:26:43.794Z,21.03
2017-11-03T16:35:57.065Z,20.07
2017-11-03T16:38:25.753Z,19.27
2017-11-03T16:40:53.873Z,22.00
2017-11-03T16:43:21.461Z,21.90
2017-11-03T16:45:48.990Z,19.83
2017-11-03T16:48:16.524Z,19.43
2017-11-03T16:50:44.235Z,19.70
2017-11-03T16:53:11.952Z,21.10
2017-11-03T16:55:39.873Z,19.20
2017-11-03T16:58:07.427Z,19.43
2017-11-03T17:00:36.777Z,21.90
2017-11-03T17:03:04.565Z,20.17
2017-11-03T17:05:32.264Z,20.37
2017-11-03T17:08:00.627Z,21.03
2017-11-03T17:10:28.182Z,20.37
2017-11-03T17:12:55.724Z,22.23
2017-11-03T17:15:23.204Z,25.93
2017-11-03T17:17:50.830Z,21.77
2017-11-03T17:20:18.417Z,21.03
2017-11-03T17:22:46.665Z,23.13
2017-11-03T17:25:14.354Z,21.37
2017-11-03T17:27:41.878Z,27.77
2017-11-03T17:30:09.598Z,22.53
2017-11-03T17:32:37.260Z,20.10
2017-11-03T17:35:04.795Z,24.43
2017-11-03T17:37:32.307Z,22.87
2017-11-03T17:39:59.834Z,21.73
2017-11-03T17:42:27.700Z,22.33
2017-11-03T17:44:55.244Z,19.97
2017-11-03T17:47:22.799Z,26.10
2017-11-03T17:49:50.323Z,20.17
2017-11-03T17:52:17.831Z,21.97
2017-11-03T17:54:45.332Z,24.37
2017-11-03T17:57:12.836Z,22.40
2017-11-03T17:59:40.332Z,26.43
2017-11-03T18:02:07.809Z,22.43
2017-11-03T18:04:36.355Z,25.57
2017-11-03T18:07:05.164Z,23.17
2017-11-03T18:12:15.205Z,23.03
2017-11-03T18:14:44.563Z,26.90
2017-11-03T18:17:12.186Z,27.30
2017-11-03T18:19:39.762Z,23.13
2017-11-03T18:22:07.432Z,21.03
2017-11-03T18:24:34.914Z,25.63
2017-11-03T18:27:03.339Z,26.87
2017-11-03T18:29:30.801Z,24.23
2017-11-03T18:31:58.313Z,24.00
2017-11-03T18:34:25.812Z,27.30
2017-11-03T18:36:53.321Z,25.10
2017-11-03T18:39:20.873Z,25.57
2017-11-03T18:41:48.428Z,27.00
2017-11-03T18:44:15.956Z,24.93
2017-11-03T18:46:43.560Z,24.60
2017-11-03T18:49:11.056Z,26.17
2017-11-03T18:51:41.175Z,26.70
2017-11-03T18:54:08.676Z,21.77
2017-11-03T18:56:36.140Z,28.30
2017-11-03T18:59:03.656Z,26.87
2017-11-03T19:01:32.440Z,30.57
2017-11-03T19:03:59.922Z,29.00
2017-11-03T19:06:27.405Z,26.07
2017-11-03T19:08:54.913Z,27.10
2017-11-03T19:11:22.449Z,26.53
2017-11-03T19:13:50.005Z,26.37
2017-11-03T19:16:17.504Z,25.90
2017-11-03T19:18:45.006Z,26.10
2017-11-03T19:21:12.552Z,25.97
2017-11-03T19:23:40.851Z,30.43
2017-11-03T19:26:08.416Z,25.77
2017-11-03T19:28:35.918Z,25.87
2017-11-03T19:31:03.456Z,32.67
2017-11-03T19:33:30.961Z,35.23
2017-11-03T19:35:58.471Z,28.70
2017-11-03T19:38:25.965Z,33.87
2017-11-03T19:40:53.464Z,30.80
2017-11-03T19:43:20.940Z,34.60
2017-11-03T19:45:48.488Z,30.20
2017-11-03T19:48:15.967Z,34.67
2017-11-03T19:50:43.482Z,30.87
2017-11-03T19:53:11.212Z,29.87
2017-11-03T19:55:38.739Z,36.60
2017-11-03T19:58:06.194Z,32.53
2017-11-03T20:00:33.680Z,32.37
2017-11-03T20:03:01.163Z,36.67
2017-11-03T20:05:28.639Z,33.13
2017-11-03T20:07:56.171Z,37.50
2017-11-03T20:10:23.678Z,37.30
2017-11-03T20:12:51.183Z,32.07
2017-11-03T20:15:18.689Z,35.40
2017-11-03T20:17:46.188Z,34.47
2017-11-03T20:20:13.645Z,33.40
2017-11-03T20:22:41.139Z,36.70
2017-11-03T20:25:08.623Z,35.37
2017-11-03T20:27:36.394Z,33.07
2017-11-03T20:30:04.618Z,31.70
2017-11-03T20:32:32.717Z,34.00
2017-11-03T20:35:00.650Z,35.07
2017-11-03T20:37:28.654Z,36.90
2017-11-03T20:39:56.382Z,34.87
2017-11-03T20:42:26.708Z,32.67
2017-11-03T20:44:55.179Z,37.47
2017-11-03T20:47:26.236Z,40.37
2017-11-03T20:49:53.757Z,35.77
2017-11-03T20:52:21.240Z,34.50
2017-11-03T20:54:48.759Z,37.83
2017-11-03T20:57:16.345Z,34.53
2017-11-03T20:59:44.580Z,35.43
2017-11-03T21:02:15.457Z,37.60
2017-11-03T21:04:44.735Z,39.80
2017-11-03T21:07:12.221Z,38.53
2017-11-03T21:09:39.707Z,35.83
2017-11-03T21:12:07.215Z,41.27
2017-11-03T21:14:34.714Z,33.23
2017-11-03T21:17:02.224Z,35.03
2017-11-03T21:19:29.780Z,33.63
2017-11-03T21:21:57.260Z,34.20
2017-11-03T21:24:24.734Z,35.87
2017-11-03T21:26:52.226Z,34.87
2017-11-03T21:29:19.778Z,35.47
2017-11-03T21:31:47.600Z,35.67
2017-11-03T21:34:15.124Z,32.93
2017-11-03T21:36:42.662Z,32.00
2017-11-03T21:39:10.149Z,33.93
2017-11-03T21:41:37.641Z,33.17
2017-11-03T21:44:05.091Z,37.90
2017-11-03T21:46:32.651Z,31.70
2017-11-03T21:49:05.243Z,32.20
2017-11-03T21:51:32.768Z,32.33
2017-11-03T21:54:00.286Z,33.37
2017-11-03T21:56:27.852Z,30.10
2017-11-03T21:58:55.378Z,32.53
2017-11-03T22:01:22.890Z,32.23
2017-11-03T22:03:50.381Z,34.30
2017-11-03T22:06:17.835Z,33.10
2017-11-03T22:08:45.327Z,33.50
2017-11-03T22:11:12.809Z,29.57
2017-11-03T22:13:40.324Z,31.27
2017-11-03T22:16:08.730Z,32.03
2017-11-03T22:18:36.232Z,33.03
2017-11-03T22:21:03.767Z,31.73
2017-11-03T22:23:31.307Z,30.37
2017-11-03T22:25:59.547Z,30.57
2017-11-03T22:28:27.100Z,29.70
2017-11-03T22:30:54.608Z,28.00
2017-11-03T22:33:22.145Z,33.00
2017-11-03T22:35:49.627Z,28.90
2017-11-03T22:38:17.136Z,32.23
2017-11-03T22:40:44.627Z,27.70
2017-11-03T22:43:12.173Z,28.43
2017-11-03T22:45:40.589Z,28.37
2017-11-03T22:48:11.164Z,27.70
2017-11-03T22:50:41.385Z,27.37
2017-11-03T22:53:09.597Z,27.83
2017-11-03T22:55:37.288Z,27.03
2017-11-03T22:58:09.271Z,28.93
2017-11-03T23:00:36.951Z,27.30
2017-11-03T23:03:05.313Z,26.70
2017-11-03T23:05:32.866Z,26.73
2017-11-03T23:08:00.425Z,27.57
2017-11-03T23:10:31.342Z,25.63
2017-11-03T23:13:02.008Z,27.93
2017-11-03T23:15:32.353Z,26.13
2017-11-03T23:18:02.254Z,27.47
2017-11-03T23:20:29.818Z,26.17
2017-11-03T23:22:57.280Z,26.87
2017-11-03T23:25:24.906Z,26.30
2017-11-03T23:27:52.423Z,29.47
2017-11-03T23:30:19.896Z,26.53
2017-11-03T23:32:49.469Z,27.30
2017-11-03T23:35:16.948Z,28.90
2017-11-03T23:37:44.455Z,23.57
2017-11-03T23:40:14.448Z,22.33
2017-11-03T23:42:41.934Z,23.67
2017-11-03T23:45:12.392Z,29.60
2017-11-03T23:47:40.016Z,26.07
2017-11-03T23:50:08.881Z,24.20
2017-11-03T23:52:38.072Z,22.97
2017-11-03T23:55:06.752Z,25.83
2017-11-03T23:57:36.052Z,26.37
